createdAt,value
2023-01-04T00:02:05.118Z,101828.03
2023-01-04T00:04:31.557Z,101824.66
2023-01-04T00:06:57.967Z,101814.34
2023-01-04T00:09:24.421Z,101816.94
2023-01-04T00:11:50.823Z,101821.28
2023-01-04T00:14:18.634Z,101819.50
2023-01-04T00:16:45.187Z,101810.88
2023-01-04T00:19:12.308Z,101822.97
2023-01-04T00:21:38.726Z,101810.09
2023-01-04T00:24:05.316Z,101801.47
2023-01-04T00:26:33.309Z,101808.31
2023-01-04T00:29:07.188Z,101808.31
2023-01-04T00:31:34.914Z,101809.88
2023-01-04T00:34:02.659Z,101804.41
2023-01-04T00:36:29.752Z,101794.88
2023-01-04T00:39:07.654Z,101789.72
2023-01-04T00:41:58.203Z,101787.72
2023-01-04T00:44:22.181Z,101785.03
2023-01-04T00:46:48.791Z,101777.88
2023-01-04T00:49:15.400Z,101757.16
2023-01-04T00:51:42.240Z,101761.31
2023-01-04T00:54:12.871Z,101755.25
2023-01-04T00:56:39.279Z,101738.88
2023-01-04T00:59:05.943Z,101733.09
2023-01-04T01:01:33.743Z,101725.25
2023-01-04T01:04:03.163Z,101715.84
2023-01-04T01:06:30.756Z,101703.84
2023-01-04T01:08:57.676Z,101697.81
2023-01-04T01:11:24.721Z,101689.28
2023-01-04T01:13:51.353Z,101684.03
2023-01-04T01:16:37.939Z,101689.28
2023-01-04T01:19:07.198Z,101690.97
2023-01-04T01:21:33.626Z,101680.31
2023-01-04T01:24:00.070Z,101685.56
2023-01-04T01:26:26.534Z,101691.50
2023-01-04T01:28:53.062Z,101688.16
2023-01-04T01:31:24.517Z,101682.00
2023-01-04T01:33:52.782Z,101682.09
2023-01-04T01:36:20.294Z,101685.56
2023-01-04T01:38:46.858Z,101689.72
2023-01-04T01:41:19.881Z,101692.31
2023-01-04T01:43:52.409Z,101687.16
2023-01-04T01:46:40.560Z,101686.25
2023-01-04T01:49:21.661Z,101678.53
2023-01-04T01:51:48.183Z,101669.91
2023-01-04T01:54:20.632Z,101668.13
2023-01-04T01:56:48.144Z,101666.34
2023-01-04T01:59:15.753Z,101665.53
2023-01-04T02:01:42.258Z,101657.81
2023-01-04T02:04:09.473Z,101647.50
2023-01-04T02:06:39.275Z,101644.84
2023-01-04T02:09:05.850Z,101635.44
2023-01-04T02:11:32.338Z,101630.06
2023-01-04T02:14:18.500Z,101626.50
2023-01-04T02:16:50.966Z,101621.25
2023-01-04T02:19:49.521Z,101615.31
2023-01-04T02:22:32.331Z,101603.22
2023-01-04T02:25:26.080Z,101600.50
2023-01-04T02:27:55.415Z,101587.31
2023-01-04T02:30:31.255Z,101582.16
2023-01-04T02:33:10.353Z,101581.47
2023-01-04T02:35:42.235Z,101574.75
2023-01-04T02:38:22.324Z,101570.38
2023-01-04T02:41:10.566Z,101568.81
2023-01-04T02:44:09.305Z,101554.47
2023-01-04T02:46:40.948Z,101548.53
2023-01-04T02:49:25.971Z,101548.72
2023-01-04T02:51:52.399Z,101553.19
2023-01-04T02:54:25.094Z,101537.84
2023-01-04T02:57:30.645Z,101531.88
2023-01-04T03:00:06.852Z,101521.59
2023-01-04T03:03:20.091Z,101517.47
2023-01-04T03:06:17.679Z,101517.47
2023-01-04T03:08:49.067Z,101508.84
2023-01-04T03:11:35.721Z,101499.28
2023-01-04T03:14:30.967Z,101493.38
2023-01-04T03:17:00.849Z,101490.81
2023-01-04T03:19:45.863Z,101477.91
2023-01-04T03:22:33.589Z,101462.47
2023-01-04T03:25:19.746Z,101465.03
2023-01-04T03:28:06.319Z,101455.50
2023-01-04T03:30:53.846Z,101448.56
2023-01-04T03:33:38.986Z,101429.53
2023-01-04T03:36:38.672Z,101429.53
2023-01-04T03:39:58.157Z,101422.59
2023-01-04T03:42:58.524Z,101424.41
2023-01-04T03:45:47.541Z,101413.28
2023-01-04T03:48:32.400Z,101407.34
2023-01-04T03:51:04.965Z,101403.88
2023-01-04T03:53:35.879Z,101401.53
2023-01-04T03:56:02.740Z,101388.94
2023-01-04T03:58:29.214Z,101394.19
2023-01-04T04:01:03.956Z,101387.53
2023-01-04T04:03:50.367Z,101393.00
2023-01-04T04:06:35.386Z,101377.72
2023-01-04T04:09:02.097Z,101371.59
2023-01-04T04:11:31.369Z,101367.53
2023-01-04T04:13:59.356Z,101367.00
2023-01-04T04:16:26.194Z,101360.56
2023-01-04T04:18:52.626Z,101363.31
2023-01-04T04:21:19.052Z,101368.66
2023-01-04T04:23:45.580Z,101364.72
2023-01-04T04:26:12.031Z,101360.53
2023-01-04T04:28:39.407Z,101360.72
2023-01-04T04:31:06.289Z,101354.88
2023-01-04T04:33:32.693Z,101345.63
2023-01-04T04:35:59.163Z,101341.34
2023-01-04T04:38:25.659Z,101330.38
2023-01-04T04:41:10.590Z,101332.16
2023-01-04T04:43:37.007Z,101316.84
2023-01-04T04:46:03.572Z,101313.66
2023-01-04T04:48:30.128Z,101302.47
2023-01-04T04:50:56.759Z,101294.13
2023-01-04T04:53:23.224Z,101293.50
2023-01-04T04:55:53.295Z,101278.13
2023-01-04T04:58:20.022Z,101271.34
2023-01-04T05:00:46.481Z,101264.69
2023-01-04T05:03:12.960Z,101258.06
2023-01-04T05:05:39.408Z,101254.66
2023-01-04T05:08:05.851Z,101251.47
2023-01-04T05:10:32.256Z,101248.25
2023-01-04T05:13:01.532Z,101235.34
2023-01-04T05:15:31.185Z,101234.53
2023-01-04T05:17:57.663Z,101232.78
2023-01-04T05:20:25.278Z,101232.84
2023-01-04T05:22:51.693Z,101240.88
2023-01-04T05:25:18.142Z,101231.53
2023-01-04T05:27:45.144Z,101222.09
2023-01-04T05:30:31.820Z,101218.97
2023-01-04T05:32:58.768Z,101213.91
2023-01-04T05:35:25.420Z,101206.38
2023-01-04T05:37:51.865Z,101197.81
2023-01-04T05:40:18.561Z,101197.81
2023-01-04T05:42:45.024Z,101191.06
2023-01-04T05:45:11.711Z,101194.69
2023-01-04T05:47:38.112Z,101185.34
2023-01-04T05:50:04.854Z,101180.97
2023-01-04T05:52:31.370Z,101177.59
2023-01-04T05:54:57.802Z,101177.78
2023-01-04T05:57:24.215Z,101173.69
2023-01-04T05:59:50.673Z,101166.81
2023-01-04T06:02:23.171Z,101161.66
2023-01-04T06:04:56.450Z,101156.50
2023-01-04T06:07:24.780Z,101149.66
2023-01-04T06:09:51.208Z,101147.78
2023-01-04T06:12:17.637Z,101131.91
2023-01-04T06:14:44.031Z,101131.97
2023-01-04T06:17:10.607Z,101144.09
2023-01-04T06:19:37.110Z,101122.75
2023-01-04T06:22:03.615Z,101117.00
2023-01-04T06:24:30.079Z,101111.22
2023-01-04T06:26:56.507Z,101098.13
2023-01-04T06:29:22.933Z,101092.06
2023-01-04T06:31:49.373Z,101082.31
2023-01-04T06:34:15.811Z,101083.22
2023-01-04T06:36:42.403Z,101073.75
2023-01-04T06:39:09.151Z,101072.72
2023-01-04T06:41:35.729Z,101061.47
2023-01-04T06:44:02.191Z,101056.50
2023-01-04T06:46:28.712Z,101045.44
2023-01-04T06:48:55.186Z,101038.50
2023-01-04T06:51:21.922Z,101021.16
2023-01-04T06:53:48.396Z,101013.22
2023-01-04T06:56:15.219Z,101008.25
2023-01-04T06:58:41.624Z,101007.59
2023-01-04T07:01:08.181Z,101006.06
2023-01-04T07:03:34.789Z,101002.28
2023-01-04T07:06:06.103Z,100982.75
2023-01-04T07:08:33.350Z,100986.28
2023-01-04T07:10:59.753Z,100977.84
2023-01-04T07:13:26.185Z,100967.63
2023-01-04T07:15:52.663Z,100966.72
2023-01-04T07:18:19.135Z,100968.66
2023-01-04T07:20:45.544Z,100968.66
2023-01-04T07:23:11.962Z,100955.84
2023-01-04T07:25:38.429Z,100950.00
2023-01-04T07:28:04.918Z,100940.50
2023-01-04T07:30:31.375Z,100945.88
2023-01-04T07:32:57.830Z,100945.00
2023-01-04T07:35:24.626Z,100932.25
2023-01-04T07:37:57.816Z,100936.63
2023-01-04T07:40:24.974Z,100939.34
2023-01-04T07:42:57.026Z,100932.63
2023-01-04T07:45:23.785Z,100934.34
2023-01-04T07:47:50.271Z,100924.97
2023-01-04T07:50:16.761Z,100919.16
2023-01-04T07:52:43.190Z,100926.97
2023-01-04T07:55:09.988Z,100928.81
2023-01-04T07:57:37.416Z,100914.97
2023-01-04T08:00:04.720Z,100901.38
2023-01-04T08:02:31.226Z,100893.75
2023-01-04T08:04:57.841Z,100894.50
2023-01-04T08:07:24.294Z,100909.41
2023-01-04T08:09:50.706Z,100917.97
2023-01-04T08:12:17.125Z,100915.63
2023-01-04T08:14:43.550Z,100915.03
2023-01-04T08:17:10.130Z,100911.88
2023-01-04T08:19:36.580Z,100900.81
2023-01-04T08:22:03.001Z,100894.91
2023-01-04T08:24:29.427Z,100889.72
2023-01-04T08:26:56.265Z,100893.34
2023-01-04T08:29:22.708Z,100896.94
2023-01-04T08:31:49.181Z,100897.06
2023-01-04T08:34:15.750Z,100894.28
2023-01-04T08:36:50.417Z,100896.38
2023-01-04T08:39:16.971Z,100899.25
2023-01-04T08:41:58.746Z,100887.19
2023-01-04T08:44:27.934Z,100890.09
2023-01-04T08:46:55.712Z,100878.72
2023-01-04T08:49:24.643Z,100885.81
2023-01-04T08:51:51.149Z,100885.28
2023-01-04T08:54:17.803Z,100884.44
2023-01-04T08:56:44.243Z,100888.91
2023-01-04T08:59:12.987Z,100872.09
2023-01-04T09:01:39.993Z,100874.09
2023-01-04T09:04:07.134Z,100867.28
2023-01-04T09:06:33.660Z,100844.16
2023-01-04T09:09:00.135Z,100855.56
2023-01-04T09:11:26.656Z,100861.72
2023-01-04T09:14:06.405Z,100862.69
2023-01-04T09:16:34.508Z,100862.63
2023-01-04T09:19:00.980Z,100857.84
2023-01-04T09:21:28.544Z,100851.91
2023-01-04T09:23:58.036Z,100845.06
2023-01-04T09:26:25.435Z,100839.25
2023-01-04T09:28:53.490Z,100855.53
2023-01-04T09:31:22.889Z,100844.50
2023-01-04T09:34:18.869Z,100843.69
2023-01-04T09:36:35.720Z,100840.28
2023-01-04T09:39:02.110Z,100834.41
2023-01-04T09:41:30.622Z,100835.44
2023-01-04T09:44:18.206Z,100825.28
2023-01-04T09:46:49.723Z,100831.28
2023-01-04T09:49:22.855Z,100822.69
2023-01-04T09:52:03.357Z,100810.69
2023-01-04T09:54:51.066Z,100809.28
2023-01-04T09:57:29.628Z,100813.69
2023-01-04T09:59:59.105Z,100796.38
2023-01-04T10:02:43.620Z,100793.81
2023-01-04T10:05:19.864Z,100787.88
2023-01-04T10:07:46.311Z,100783.56
2023-01-04T10:10:22.808Z,100787.22
2023-01-04T10:13:14.743Z,100784.72
2023-01-04T10:15:49.484Z,100777.19
2023-01-04T10:21:33.368Z,100765.22
2023-01-04T10:24:19.409Z,100757.53
2023-01-04T10:26:48.248Z,100748.81
2023-01-04T10:29:41.117Z,100756.91
2023-01-04T10:32:31.951Z,100749.81
2023-01-04T10:34:58.509Z,100741.97
2023-01-04T10:37:35.773Z,100731.63
2023-01-04T10:40:02.415Z,100722.97
2023-01-04T10:42:38.989Z,100717.84
2023-01-04T10:45:15.259Z,100711.66
2023-01-04T10:48:02.699Z,100701.22
2023-01-04T10:50:44.201Z,100700.66
2023-01-04T10:53:20.569Z,100702.38
2023-01-04T10:56:24.109Z,100707.69
2023-01-04T10:59:04.633Z,100695.75
2023-01-04T11:01:40.243Z,100697.50
2023-01-04T11:04:18.938Z,100708.09
2023-01-04T11:07:00.111Z,100712.66
2023-01-04T11:09:32.649Z,100706.00
2023-01-04T11:12:00.888Z,100702.59
2023-01-04T11:14:33.280Z,100702.72
2023-01-04T11:17:05.623Z,100698.59
2023-01-04T11:19:32.938Z,100688.34
2023-01-04T11:22:26.123Z,100683.28
2023-01-04T11:28:17.202Z,100653.34
2023-01-04T11:30:50.160Z,100650.03
2023-01-04T11:33:21.709Z,100642.47
2023-01-04T11:35:53.791Z,100652.88
2023-01-04T11:38:28.007Z,100641.06
2023-01-04T11:41:01.919Z,100645.63
2023-01-04T11:43:30.327Z,100636.28
2023-01-04T11:46:21.957Z,100627.84
2023-01-04T11:48:48.572Z,100628.59
2023-01-04T11:51:25.795Z,100620.19
2023-01-04T11:54:15.477Z,100628.88
2023-01-04T11:57:10.766Z,100621.00
2023-01-04T11:59:38.004Z,100631.38
2023-01-04T12:05:29.082Z,100617.63
2023-01-04T12:07:57.812Z,100624.44
2023-01-04T12:10:27.110Z,100620.06
2023-01-04T12:12:55.104Z,100608.75
2023-01-04T12:15:53.840Z,100610.19
2023-01-04T12:18:26.499Z,100602.97
2023-01-04T12:20:52.897Z,100596.16
2023-01-04T12:23:20.448Z,100596.31
2023-01-04T12:25:51.394Z,100585.94
2023-01-04T12:28:33.553Z,100583.59
2023-01-04T12:31:19.574Z,100578.44
2023-01-04T12:33:47.991Z,100572.44
2023-01-04T12:36:18.743Z,100574.31
2023-01-04T12:38:59.191Z,100577.94
2023-01-04T12:41:25.555Z,100569.38
2023-01-04T12:43:53.206Z,100562.66
2023-01-04T12:46:47.411Z,100559.13
2023-01-04T12:49:25.745Z,100558.41
2023-01-04T12:52:55.238Z,100544.66
2023-01-04T12:55:31.848Z,100557.63
2023-01-04T12:57:59.486Z,100545.50
2023-01-04T13:00:50.804Z,100550.69
2023-01-04T13:03:18.230Z,100544.66
2023-01-04T13:05:58.141Z,100537.66
2023-01-04T13:08:25.208Z,100549.88
2023-01-04T13:10:56.264Z,100550.81
2023-01-04T13:13:58.277Z,100545.69
2023-01-04T13:16:39.753Z,100534.41
2023-01-04T13:19:25.815Z,100525.75
2023-01-04T13:21:53.689Z,100530.13
2023-01-04T13:24:32.006Z,100525.97
2023-01-04T13:27:07.078Z,100520.75
2023-01-04T13:29:34.856Z,100520.88
2023-01-04T13:32:09.031Z,100521.13
2023-01-04T13:34:51.924Z,100517.81
2023-01-04T13:37:25.821Z,100520.44
2023-01-04T13:40:01.412Z,100528.28
2023-01-04T13:42:31.537Z,100521.47
2023-01-04T13:45:20.379Z,100523.19
2023-01-04T13:47:50.076Z,100522.50
2023-01-04T13:50:37.376Z,100513.00
2023-01-04T13:53:08.023Z,100503.59
2023-01-04T13:55:39.024Z,100515.75
2023-01-04T13:58:07.831Z,100511.44
2023-01-04T14:00:44.156Z,100508.97
2023-01-04T14:03:10.596Z,100516.91
2023-01-04T14:05:38.076Z,100508.28
2023-01-04T14:08:10.084Z,100498.03
2023-01-04T14:10:36.911Z,100495.47
2023-01-04T14:13:04.111Z,100494.56
2023-01-04T14:15:33.715Z,100504.09
2023-01-04T14:18:00.171Z,100490.28
2023-01-04T14:20:26.477Z,100492.94
2023-01-04T14:22:54.529Z,100499.09
2023-01-04T14:25:48.514Z,100488.69
2023-01-04T14:28:30.458Z,100485.31
2023-01-04T14:31:00.057Z,100489.63
2023-01-04T14:33:41.790Z,100484.31
2023-01-04T14:36:19.266Z,100472.25
2023-01-04T14:38:52.749Z,100473.19
2023-01-04T14:41:24.909Z,100468.13
2023-01-04T14:44:00.404Z,100475.16
2023-01-04T14:46:31.814Z,100470.78
2023-01-04T14:48:58.585Z,100451.72
2023-01-04T14:51:48.873Z,100463.03
2023-01-04T14:54:23.923Z,100457.00
2023-01-04T14:56:51.268Z,100450.84
2023-01-04T14:59:17.939Z,100457.81
2023-01-04T15:01:44.467Z,100449.13
2023-01-04T15:04:11.054Z,100443.16
2023-01-04T15:06:47.235Z,100438.97
2023-01-04T15:09:13.659Z,100452.81
2023-01-04T15:11:40.118Z,100447.63
2023-01-04T15:14:06.542Z,100435.56
2023-01-04T15:16:32.950Z,100438.91
2023-01-04T15:18:59.509Z,100431.22
2023-01-04T15:21:25.919Z,100438.22
2023-01-04T15:23:52.349Z,100441.59
2023-01-04T15:26:18.749Z,100442.44
2023-01-04T15:28:45.180Z,100446.78
2023-01-04T15:31:13.519Z,100442.44
2023-01-04T15:33:40.233Z,100437.13
2023-01-04T15:36:23.757Z,100436.25
2023-01-04T15:38:54.094Z,100421.56
2023-01-04T15:41:39.069Z,100422.44
2023-01-04T15:44:05.638Z,100416.31
2023-01-04T15:46:32.228Z,100415.47
2023-01-04T15:48:58.753Z,100419.69
2023-01-04T15:51:25.151Z,100414.56
2023-01-04T15:53:52.864Z,100424.06
2023-01-04T15:56:20.602Z,100415.34
2023-01-04T15:58:47.868Z,100424.81
2023-01-04T16:01:15.923Z,100411.75
2023-01-04T16:03:42.574Z,100414.34
2023-01-04T16:06:11.898Z,100422.09
2023-01-04T16:08:38.790Z,100409.88
2023-01-04T16:11:12.817Z,100411.53
2023-01-04T16:13:39.599Z,100400.25
2023-01-04T16:16:06.779Z,100388.13
2023-01-04T16:18:33.670Z,100377.72
2023-01-04T16:21:00.104Z,100376.81
2023-01-04T16:23:27.685Z,100376.81
2023-01-04T16:26:23.618Z,100388.16
2023-01-04T16:28:51.762Z,100364.72
2023-01-04T16:31:18.279Z,100369.03
2023-01-04T16:33:47.501Z,100372.53
2023-01-04T16:36:15.064Z,100370.06
2023-01-04T16:38:43.984Z,100370.06
2023-01-04T16:41:12.568Z,100362.38
2023-01-04T16:43:50.469Z,100358.16
2023-01-04T16:46:27.370Z,100353.00
2023-01-04T16:48:56.548Z,100355.56
2023-01-04T16:51:24.263Z,100358.28
2023-01-04T16:53:51.190Z,100370.41
2023-01-04T16:56:20.226Z,100358.34
2023-01-04T16:58:48.275Z,100358.34
2023-01-04T17:01:18.907Z,100354.03
2023-01-04T17:03:47.355Z,100348.00
2023-01-04T17:06:16.494Z,100347.09
2023-01-04T17:08:43.474Z,100345.31
2023-01-04T17:12:11.425Z,100339.22
2023-01-04T17:13:59.321Z,100341.81
2023-01-04T17:16:29.628Z,100342.72
2023-01-04T17:19:00.795Z,100338.34
2023-01-04T17:21:34.283Z,100336.63
2023-01-04T17:24:02.629Z,100333.19
2023-01-04T17:26:31.764Z,100329.75
2023-01-04T17:28:59.691Z,100328.06
2023-01-04T17:31:39.619Z,100328.16
2023-01-04T17:34:07.751Z,100308.13
2023-01-04T17:36:34.347Z,100310.69
2023-01-04T17:39:01.378Z,100301.06
2023-01-04T17:41:29.280Z,100283.84
2023-01-04T17:43:59.947Z,100302.91
2023-01-04T17:46:27.644Z,100300.28
2023-01-04T17:49:21.271Z,100305.47
2023-01-04T17:51:40.571Z,100311.53
2023-01-04T17:54:08.334Z,100308.03
2023-01-04T17:56:36.798Z,100308.94
2023-01-04T17:59:06.587Z,100299.44
2023-01-04T18:01:33.532Z,100295.16
2023-01-04T18:04:00.742Z,100295.19
2023-01-04T18:06:30.651Z,100283.97
2023-01-04T18:08:57.851Z,100287.53
2023-01-04T18:11:24.914Z,100277.16
2023-01-04T18:13:53.060Z,100289.28
2023-01-04T18:16:27.470Z,100298.81
2023-01-04T18:18:55.322Z,100302.31
2023-01-04T18:21:29.208Z,100284.13
2023-01-04T18:24:34.698Z,100290.22
2023-01-04T18:27:19.966Z,100278.13
2023-01-04T18:29:34.213Z,100284.22
2023-01-04T18:32:00.725Z,100282.53
2023-01-04T18:34:27.361Z,100280.81
2023-01-04T18:36:54.001Z,100282.56
2023-01-04T18:39:20.560Z,100280.91
2023-01-04T18:41:47.139Z,100270.44
2023-01-04T18:47:01.631Z,100255.84
2023-01-04T18:49:28.114Z,100263.53
2023-01-04T18:51:54.564Z,100262.63
2023-01-04T18:54:21.559Z,100278.31
2023-01-04T18:56:48.295Z,100255.81
2023-01-04T18:59:17.201Z,100273.13
2023-01-04T19:01:44.930Z,100262.72
2023-01-04T19:04:12.479Z,100286.13
2023-01-04T19:06:40.028Z,100281.84
2023-01-04T19:09:07.209Z,100264.63
2023-01-04T19:11:34.273Z,100272.44
2023-01-04T19:14:00.837Z,100279.41
2023-01-04T19:16:30.857Z,100285.47
2023-01-04T19:18:58.927Z,100256.91
2023-01-04T19:21:25.750Z,100282.13
2023-01-04T19:23:52.669Z,100260.38
2023-01-04T19:26:19.389Z,100258.75
2023-01-04T19:28:45.823Z,100250.16
2023-01-04T19:31:12.620Z,100243.16
2023-01-04T19:33:39.135Z,100250.91
2023-01-04T19:36:10.274Z,100237.91
2023-01-04T19:38:37.206Z,100238.72
2023-01-04T19:41:04.804Z,100233.44
2023-01-04T19:43:31.348Z,100234.25
2023-01-04T19:45:59.086Z,100222.94
2023-01-04T19:48:25.722Z,100222.88
2023-01-04T19:51:09.903Z,100226.38
2023-01-04T19:53:36.824Z,100235.81
2023-01-04T19:56:03.342Z,100226.25
2023-01-04T19:58:29.816Z,100226.25
2023-01-04T20:00:56.281Z,100215.81
2023-01-04T20:03:23.654Z,100208.84
2023-01-04T20:05:51.565Z,100220.19
2023-01-04T20:08:18.283Z,100221.00
2023-01-04T20:10:45.749Z,100221.88
2023-01-04T20:13:12.143Z,100228.81
2023-01-04T20:15:39.482Z,100235.78
2023-01-04T20:18:11.914Z,100228.84
2023-01-04T20:20:43.923Z,100233.19
2023-01-04T20:23:10.383Z,100239.25
2023-01-04T20:25:41.011Z,100238.50
2023-01-04T20:28:07.634Z,100226.44
2023-01-04T20:30:34.207Z,100231.63
2023-01-04T20:33:00.681Z,100228.19
2023-01-04T20:35:27.118Z,100216.13
2023-01-04T20:37:59.408Z,100217.06
2023-01-04T20:40:26.858Z,100219.59
2023-01-04T20:43:11.961Z,100223.06
2023-01-04T20:45:42.796Z,100241.25
2023-01-04T20:48:09.452Z,100238.66
2023-01-04T20:50:35.893Z,100232.53
2023-01-04T20:53:02.573Z,100239.53
2023-01-04T20:55:29.085Z,100236.91
2023-01-04T20:57:55.500Z,100229.06
2023-01-04T21:00:21.980Z,100229.97
2023-01-04T21:02:48.958Z,100236.09
2023-01-04T21:05:16.161Z,100236.91
2023-01-04T21:07:42.577Z,100234.28
2023-01-04T21:10:09.611Z,100227.34
2023-01-04T21:12:37.592Z,100207.47
2023-01-04T21:15:04.200Z,100210.00
2023-01-04T21:17:30.646Z,100205.66
2023-01-04T21:19:57.132Z,100205.66
2023-01-04T21:22:23.904Z,100210.78
2023-01-04T21:24:50.335Z,100215.13
2023-01-04T21:27:16.748Z,100210.78
2023-01-04T21:29:43.196Z,100222.81
2023-01-04T21:32:09.619Z,100230.63
2023-01-04T21:34:36.028Z,100228.09
2023-01-04T21:37:02.436Z,100226.44
2023-01-04T21:39:29.256Z,100233.31
2023-01-04T21:41:55.704Z,100228.13
2023-01-04T21:44:22.141Z,100221.25
2023-01-04T21:46:48.581Z,100223.75
2023-01-04T21:49:15.122Z,100218.69
2023-01-04T21:51:41.535Z,100229.16
2023-01-04T21:54:08.351Z,100211.78
2023-01-04T21:56:34.772Z,100217.88
2023-01-04T21:59:02.223Z,100214.47
2023-01-04T22:01:34.569Z,100214.50
2023-01-04T22:04:01.795Z,100207.47
2023-01-04T22:06:29.227Z,100193.72
2023-01-04T22:08:55.670Z,100218.03
2023-01-04T22:11:22.077Z,100221.38
2023-01-04T22:13:50.196Z,100233.53
2023-01-04T22:16:17.004Z,100226.56
2023-01-04T22:18:50.212Z,100230.97
2023-01-04T22:21:19.015Z,100230.09
2023-01-04T22:23:45.441Z,100237.88
2023-01-04T22:26:12.256Z,100228.47
2023-01-04T22:28:40.030Z,100229.38
2023-01-04T22:31:08.484Z,100232.78
2023-01-04T22:33:36.035Z,100236.25
2023-01-04T22:36:07.390Z,100245.69
2023-01-04T22:38:35.501Z,100240.63
2023-01-04T22:41:09.376Z,100249.38
2023-01-04T22:43:36.444Z,100254.69
2023-01-04T22:46:04.648Z,100252.16
2023-01-04T22:48:31.124Z,100266.81
2023-01-04T22:50:57.666Z,100275.47
2023-01-04T22:53:24.092Z,100274.72
2023-01-04T22:58:37.437Z,100295.13
2023-01-04T23:01:04.889Z,100299.47
2023-01-04T23:03:35.553Z,100294.91
2023-01-04T23:06:09.796Z,100294.59
2023-01-04T23:08:36.983Z,100284.06
2023-01-04T23:11:12.619Z,100287.28
2023-01-04T23:13:39.141Z,100294.75
2023-01-04T23:16:06.597Z,100282.53
2023-01-04T23:18:33.871Z,100286.63
2023-01-04T23:21:00.393Z,100272.66
2023-01-04T23:23:27.110Z,100268.38
2023-01-04T23:25:54.051Z,100275.31
2023-01-04T23:28:20.843Z,100259.66
2023-01-04T23:30:48.240Z,100272.59
2023-01-04T23:33:14.847Z,100276.97
2023-01-04T23:35:41.470Z,100268.34
2023-01-04T23:38:08.004Z,100270.13
2023-01-04T23:40:34.569Z,100271.84
2023-01-04T23:43:02.226Z,100283.13
2023-01-04T23:45:28.949Z,100278.81
2023-01-04T23:47:55.763Z,100294.50
2023-01-04T23:50:22.563Z,100278.00
2023-01-04T23:52:49.121Z,100275.50
2023-01-04T23:55:15.657Z,100282.56
2023-01-04T23:57:42.233Z,100279.09
